sensor_id;sensor_type;location;lat;lon;timestamp;pressure;altitude;pressure_sealevel;temperature;humidity
71915;BME280;60387;49.994;14.660;2022-10-15T00:01:48;97328.84;;;15.17;62.42
71915;BME280;60387;49.994;14.660;2022-10-15T00:04:22;97317.94;;;15.17;62.80
71915;BME280;60387;49.994;14.660;2022-10-15T00:06:55;97309.31;;;15.15;62.85
71915;BME280;60387;49.994;14.660;2022-10-15T00:09:28;97309.31;;;15.15;62.99
71915;BME280;60387;49.994;14.660;2022-10-15T00:12:01;97305.19;;;15.09;62.95
71915;BME280;60387;49.994;14.660;2022-10-15T00:14:35;97298.59;;;15.10;63.33
71915;BME280;60387;49.994;14.660;2022-10-15T00:17:08;97295.44;;;15.08;63.20
71915;BME280;60387;49.994;14.660;2022-10-15T00:19:41;97285.22;;;15.05;63.47
71915;BME280;60387;49.994;14.660;2022-10-15T00:22:15;97287.47;;;15.03;62.98
71915;BME280;60387;49.994;14.660;2022-10-15T00:24:48;97280.41;;;15.02;62.86
71915;BME280;60387;49.994;14.660;2022-10-15T00:27:21;97281.56;;;15.01;63.49
71915;BME280;60387;49.994;14.660;2022-10-15T00:29:54;97276.91;;;15.02;63.29
71915;BME280;60387;49.994;14.660;2022-10-15T00:32:29;97286.69;;;15.03;62.76
71915;BME280;60387;49.994;14.660;2022-10-15T00:35:02;97287.47;;;15.03;63.21
71915;BME280;60387;49.994;14.660;2022-10-15T00:37:35;97292.13;;;15.03;63.43
71915;BME280;60387;49.994;14.660;2022-10-15T00:40:10;97289.75;;;15.01;63.71
71915;BME280;60387;49.994;14.660;2022-10-15T00:42:44;97296.66;;;14.99;63.54
71915;BME280;60387;49.994;14.660;2022-10-15T00:45:17;97290.88;;;15.00;63.04
71915;BME280;60387;49.994;14.660;2022-10-15T00:47:51;97280.97;;;14.96;63.28
71915;BME280;60387;49.994;14.660;2022-10-15T00:50:26;97288.97;;;15.01;63.18
71915;BME280;60387;49.994;14.660;2022-10-15T00:53:04;97283.63;;;15.04;63.52
71915;BME280;60387;49.994;14.660;2022-10-15T00:55:40;97263.59;;;15.00;63.75
71915;BME280;60387;49.994;14.660;2022-10-15T00:58:16;97265.63;;;15.03;63.74
71915;BME280;60387;49.994;14.660;2022-10-15T01:00:50;97267.91;;;15.01;63.83
71915;BME280;60387;49.994;14.660;2022-10-15T01:03:24;97279.28;;;15.03;63.79
71915;BME280;60387;49.994;14.660;2022-10-15T01:05:57;97278.16;;;15.04;63.76
71915;BME280;60387;49.994;14.660;2022-10-15T01:08:31;97273.16;;;15.06;63.69
71915;BME280;60387;49.994;14.660;2022-10-15T01:31:39;97228.38;;;15.07;63.66
71915;BME280;60387;49.994;14.660;2022-10-15T01:34:21;97225.66;;;15.07;63.99
71915;BME280;60387;49.994;14.660;2022-10-15T01:45:16;97217.31;;;15.16;63.63
71915;BME280;60387;49.994;14.660;2022-10-15T01:47:55;97214.25;;;15.17;63.64
71915;BME280;60387;49.994;14.660;2022-10-15T01:50:30;97199.47;;;15.18;63.81
71915;BME280;60387;49.994;14.660;2022-10-15T01:53:06;97204.59;;;15.20;63.57
71915;BME280;60387;49.994;14.660;2022-10-15T01:55:42;97208.59;;;15.22;63.40
71915;BME280;60387;49.994;14.660;2022-10-15T01:58:17;97216.41;;;15.24;63.57
71915;BME280;60387;49.994;14.660;2022-10-15T02:00:52;97215.28;;;15.25;63.43
71915;BME280;60387;49.994;14.660;2022-10-15T02:03:26;97216.06;;;15.25;63.61
71915;BME280;60387;49.994;14.660;2022-10-15T02:06:06;97229.03;;;15.28;63.38
71915;BME280;60387;49.994;14.660;2022-10-15T02:11:58;97198.91;;;15.25;63.58
71915;BME280;60387;49.994;14.660;2022-10-15T02:14:37;97218.59;;;15.30;63.34
71915;BME280;60387;49.994;14.660;2022-10-15T02:17:15;97201.72;;;15.28;63.69
71915;BME280;60387;49.994;14.660;2022-10-15T02:19:57;97208.94;;;15.33;63.61
71915;BME280;60387;49.994;14.660;2022-10-15T02:22:45;97201.53;;;15.33;63.81
71915;BME280;60387;49.994;14.660;2022-10-15T02:25:22;97204.28;;;15.33;63.98
71915;BME280;60387;49.994;14.660;2022-10-15T02:27:58;97194.94;;;15.34;64.16
71915;BME280;60387;49.994;14.660;2022-10-15T02:30:32;97196.09;;;15.33;63.92
71915;BME280;60387;49.994;14.660;2022-10-15T02:33:07;97194.16;;;15.34;64.22
71915;BME280;60387;49.994;14.660;2022-10-15T02:35:41;97186.75;;;15.34;63.97
71915;BME280;60387;49.994;14.660;2022-10-15T02:38:18;97184.03;;;15.34;63.73
71915;BME280;60387;49.994;14.660;2022-10-15T02:40:53;97193.34;;;15.33;64.20
71915;BME280;60387;49.994;14.660;2022-10-15T02:43:26;97188.22;;;15.32;63.95
71915;BME280;60387;49.994;14.660;2022-10-15T02:46:00;97184.38;;;15.33;63.99
71915;BME280;60387;49.994;14.660;2022-10-15T02:48:33;97173.00;;;15.31;64.62
71915;BME280;60387;49.994;14.660;2022-10-15T02:51:06;97170.56;;;15.29;63.97
71915;BME280;60387;49.994;14.660;2022-10-15T02:53:40;97173.00;;;15.31;64.70
71915;BME280;60387;49.994;14.660;2022-10-15T02:56:13;97175.59;;;15.27;65.07
71915;BME280;60387;49.994;14.660;2022-10-15T02:58:46;97174.69;;;15.23;64.86
71915;BME280;60387;49.994;14.660;2022-10-15T03:01:19;97170.38;;;15.22;64.84
71915;BME280;60387;49.994;14.660;2022-10-15T03:03:53;97168.81;;;15.21;64.80
71915;BME280;60387;49.994;14.660;2022-10-15T03:06:26;97167.19;;;15.20;64.78
71915;BME280;60387;49.994;14.660;2022-10-15T03:08:59;97173.13;;;15.22;65.14
71915;BME280;60387;49.994;14.660;2022-10-15T03:11:33;97168.00;;;15.21;64.95
71915;BME280;60387;49.994;14.660;2022-10-15T03:14:06;97168.00;;;15.21;65.17
71915;BME280;60387;49.994;14.660;2022-10-15T03:16:39;97160.13;;;15.19;65.08
71915;BME280;60387;49.994;14.660;2022-10-15T03:19:12;97162.53;;;15.21;65.19
71915;BME280;60387;49.994;14.660;2022-10-15T03:21:46;97159.81;;;15.21;65.86
71915;BME280;60387;49.994;14.660;2022-10-15T03:24:19;97161.72;;;15.20;64.92
71915;BME280;60387;49.994;14.660;2022-10-15T03:26:52;97160.63;;;15.21;65.25
71915;BME280;60387;49.994;14.660;2022-10-15T03:29:25;97149.94;;;15.16;65.54
71915;BME280;60387;49.994;14.660;2022-10-15T03:31:59;97157.88;;;15.21;66.58
71915;BME280;60387;49.994;14.660;2022-10-15T03:34:32;97159.38;;;15.19;66.72
71915;BME280;60387;49.994;14.660;2022-10-15T03:37:05;97160.13;;;15.19;66.02
71915;BME280;60387;49.994;14.660;2022-10-15T03:39:38;97161.72;;;15.20;65.96
71915;BME280;60387;49.994;14.660;2022-10-15T03:42:12;97146.50;;;15.19;66.21
71915;BME280;60387;49.994;14.660;2022-10-15T03:44:45;97153.91;;;15.19;66.16
71915;BME280;60387;49.994;14.660;2022-10-15T03:47:18;97156.28;;;15.20;66.44
71915;BME280;60387;49.994;14.660;2022-10-15T03:49:52;97149.59;;;15.18;65.94
71915;BME280;60387;49.994;14.660;2022-10-15T03:52:25;97150.38;;;15.18;65.60
71915;BME280;60387;49.994;14.660;2022-10-15T03:54:58;97150.81;;;15.20;66.34
71915;BME280;60387;49.994;14.660;2022-10-15T03:57:31;97144.91;;;15.18;66.71
71915;BME280;60387;49.994;14.660;2022-10-15T04:00:06;97141.75;;;15.16;66.37
71915;BME280;60387;49.994;14.660;2022-10-15T04:02:40;97142.88;;;15.15;66.18
71915;BME280;60387;49.994;14.660;2022-10-15T04:05:13;97146.88;;;15.18;66.20
71915;BME280;60387;49.994;14.660;2022-10-15T04:07:46;97151.97;;;15.19;66.26
71915;BME280;60387;49.994;14.660;2022-10-15T04:10:20;97149.59;;;15.18;66.50
71915;BME280;60387;49.994;14.660;2022-10-15T04:12:53;97153.47;;;15.17;66.65
71915;BME280;60387;49.994;14.660;2022-10-15T04:15:26;97144.47;;;15.16;67.13
71915;BME280;60387;49.994;14.660;2022-10-15T04:17:59;97149.13;;;15.16;67.17
71915;BME280;60387;49.994;14.660;2022-10-15T04:20:33;97151.06;;;15.15;66.78
71915;BME280;60387;49.994;14.660;2022-10-15T04:23:06;97139.34;;;15.15;67.04
71915;BME280;60387;49.994;14.660;2022-10-15T04:25:39;97131.41;;;15.10;67.16
71915;BME280;60387;49.994;14.660;2022-10-15T04:28:13;97134.25;;;15.13;67.16
71915;BME280;60387;49.994;14.660;2022-10-15T04:30:46;97131.53;;;15.13;66.80
71915;BME280;60387;49.994;14.660;2022-10-15T04:33:19;97137.75;;;15.14;66.56
71915;BME280;60387;49.994;14.660;2022-10-15T04:36:04;97138.56;;;15.14;66.71
71915;BME280;60387;49.994;14.660;2022-10-15T04:38:38;97138.91;;;15.13;67.13
71915;BME280;60387;49.994;14.660;2022-10-15T04:41:11;97126.41;;;15.12;67.40
71915;BME280;60387;49.994;14.660;2022-10-15T04:43:44;97132.19;;;15.10;68.92
71915;BME280;60387;49.994;14.660;2022-10-15T04:46:18;97125.84;;;15.06;68.67
71915;BME280;60387;49.994;14.660;2022-10-15T04:48:52;97123.78;;;15.03;68.46
71915;BME280;60387;49.994;14.660;2022-10-15T04:51:26;97123.78;;;15.03;68.14
71915;BME280;60387;49.994;14.660;2022-10-15T04:53:59;97129.25;;;15.03;67.88
71915;BME280;60387;49.994;14.660;2022-10-15T04:56:32;97136.66;;;15.03;68.06
71915;BME280;60387;49.994;14.660;2022-10-15T04:59:06;97129.16;;;15.00;67.92
71915;BME280;60387;49.994;14.660;2022-10-15T05:01:40;97130.06;;;15.04;68.09
71915;BME280;60387;49.994;14.660;2022-10-15T05:04:13;97128.81;;;15.01;68.84
71915;BME280;60387;49.994;14.660;2022-10-15T05:06:46;97124.94;;;15.02;68.75
71915;BME280;60387;49.994;14.660;2022-10-15T05:09:20;97116.66;;;14.99;69.00
71915;BME280;60387;49.994;14.660;2022-10-15T05:11:53;97121.44;;;15.02;68.94
71915;BME280;60387;49.994;14.660;2022-10-15T05:14:26;97124.50;;;15.00;68.17
71915;BME280;60387;49.994;14.660;2022-10-15T05:17:00;97123.34;;;15.01;68.44
71915;BME280;60387;49.994;14.660;2022-10-15T05:19:33;97127.66;;;15.02;68.55
71915;BME280;60387;49.994;14.660;2022-10-15T05:22:06;97138.56;;;15.02;68.53
71915;BME280;60387;49.994;14.660;2022-10-15T05:24:39;97125.31;;;15.01;68.94
71915;BME280;60387;49.994;14.660;2022-10-15T05:27:13;97139.06;;;15.04;68.28
71915;BME280;60387;49.994;14.660;2022-10-15T05:29:46;97137.91;;;15.05;69.02
71915;BME280;60387;49.994;14.660;2022-10-15T05:32:19;97140.16;;;15.03;68.82
71915;BME280;60387;49.994;14.660;2022-10-15T05:34:52;97129.72;;;15.05;68.61
71915;BME280;60387;49.994;14.660;2022-10-15T05:37:26;97135.97;;;15.06;68.49
71915;BME280;60387;49.994;14.660;2022-10-15T05:39:59;97150.84;;;15.08;69.07
71915;BME280;60387;49.994;14.660;2022-10-15T05:42:32;97143.47;;;15.09;68.95
71915;BME280;60387;49.994;14.660;2022-10-15T05:45:06;97138.78;;;15.09;68.43
71915;BME280;60387;49.994;14.660;2022-10-15T05:47:39;97138.47;;;15.11;68.02
71915;BME280;60387;49.994;14.660;2022-10-15T05:50:13;97147.53;;;15.15;68.31
71915;BME280;60387;49.994;14.660;2022-10-15T05:52:46;97145.84;;;15.10;69.19
71915;BME280;60387;49.994;14.660;2022-10-15T05:55:20;97149.13;;;15.16;68.58
71915;BME280;60387;49.994;14.660;2022-10-15T05:57:53;97146.97;;;15.21;68.41
71915;BME280;60387;49.994;14.660;2022-10-15T06:00:26;97146.97;;;15.21;70.08
71915;BME280;60387;49.994;14.660;2022-10-15T06:02:59;97151.28;;;15.22;69.19
71915;BME280;60387;49.994;14.660;2022-10-15T06:05:33;97153.53;;;15.20;69.69
71915;BME280;60387;49.994;14.660;2022-10-15T06:08:06;97149.22;;;15.19;70.19
71915;BME280;60387;49.994;14.660;2022-10-15T06:10:39;97150.38;;;15.18;69.61
71915;BME280;60387;49.994;14.660;2022-10-15T06:13:13;97152.44;;;15.21;69.75
71915;BME280;60387;49.994;14.660;2022-10-15T06:15:47;97156.28;;;15.20;69.38
71915;BME280;60387;49.994;14.660;2022-10-15T06:18:20;97158.66;;;15.22;70.09
71915;BME280;60387;49.994;14.660;2022-10-15T06:20:53;97152.44;;;15.21;69.98
71915;BME280;60387;49.994;14.660;2022-10-15T06:23:27;97163.91;;;15.27;69.83
71915;BME280;60387;49.994;14.660;2022-10-15T06:26:02;97166.75;;;15.30;69.47
71915;BME280;60387;49.994;14.660;2022-10-15T06:28:36;97161.28;;;15.30;69.91
71915;BME280;60387;49.994;14.660;2022-10-15T06:31:09;97164.00;;;15.30;69.37
71915;BME280;60387;49.994;14.660;2022-10-15T06:33:43;97163.66;;;15.32;70.61
71915;BME280;60387;49.994;14.660;2022-10-15T06:36:16;97165.63;;;15.31;69.79
71915;BME280;60387;49.994;14.660;2022-10-15T06:38:50;97174.69;;;15.35;70.19
71915;BME280;60387;49.994;14.660;2022-10-15T06:41:23;97179.00;;;15.36;70.03
71915;BME280;60387;49.994;14.660;2022-10-15T06:43:56;97177.44;;;15.35;69.62
71915;BME280;60387;49.994;14.660;2022-10-15T06:46:29;97180.25;;;15.39;69.84
71915;BME280;60387;49.994;14.660;2022-10-15T06:49:08;97173.31;;;15.41;70.01
71915;BME280;60387;49.994;14.660;2022-10-15T06:51:41;97173.31;;;15.41;69.52
71915;BME280;60387;49.994;14.660;2022-10-15T06:54:15;97182.41;;;15.45;70.37
71915;BME280;60387;49.994;14.660;2022-10-15T06:56:48;97179.66;;;15.45;70.04
71915;BME280;60387;49.994;14.660;2022-10-15T06:59:21;97178.91;;;15.45;70.38
71915;BME280;60387;49.994;14.660;2022-10-15T07:01:54;97178.91;;;15.45;70.87
71915;BME280;60387;49.994;14.660;2022-10-15T07:04:28;97182.06;;;15.47;70.42
71915;BME280;60387;49.994;14.660;2022-10-15T07:07:01;97179.00;;;15.48;70.68
71915;BME280;60387;49.994;14.660;2022-10-15T07:09:34;97176.28;;;15.48;70.12
71915;BME280;60387;49.994;14.660;2022-10-15T07:12:08;97167.88;;;15.41;70.74
71915;BME280;60387;49.994;14.660;2022-10-15T07:14:41;97180.59;;;15.49;70.79
71915;BME280;60387;49.994;14.660;2022-10-15T07:17:15;97179.88;;;15.52;70.70
71915;BME280;60387;49.994;14.660;2022-10-15T07:19:48;97183.53;;;15.56;70.32
71915;BME280;60387;49.994;14.660;2022-10-15T07:22:22;97189.88;;;15.60;70.53
71915;BME280;60387;49.994;14.660;2022-10-15T07:24:55;97189.88;;;15.60;71.17
71915;BME280;60387;49.994;14.660;2022-10-15T07:27:28;97191.56;;;15.65;70.66
71915;BME280;60387;49.994;14.660;2022-10-15T07:30:02;97194.28;;;15.65;70.23
71915;BME280;60387;49.994;14.660;2022-10-15T07:32:35;97193.59;;;15.68;70.51
71915;BME280;60387;49.994;14.660;2022-10-15T07:35:08;97193.25;;;15.69;70.81
71915;BME280;60387;49.994;14.660;2022-10-15T07:37:42;97171.81;;;15.56;70.90
71915;BME280;60387;49.994;14.660;2022-10-15T07:40:16;97185.06;;;15.69;70.39
71915;BME280;60387;49.994;14.660;2022-10-15T07:42:54;97188.25;;;15.71;70.13
71915;BME280;60387;49.994;14.660;2022-10-15T07:45:27;97183.69;;;15.75;70.00
71915;BME280;60387;49.994;14.660;2022-10-15T07:48:01;97192.75;;;15.79;70.22
71915;BME280;60387;49.994;14.660;2022-10-15T07:50:34;97196.75;;;15.82;70.26
71915;BME280;60387;49.994;14.660;2022-10-15T07:53:07;97191.72;;;15.84;69.77
71915;BME280;60387;49.994;14.660;2022-10-15T07:55:41;97192.63;;;15.88;70.07
71915;BME280;60387;49.994;14.660;2022-10-15T07:58:14;97194.31;;;15.92;70.15
71915;BME280;60387;49.994;14.660;2022-10-15T08:00:48;97196.78;;;15.97;69.90
71915;BME280;60387;49.994;14.660;2022-10-15T08:03:21;97208.19;;;15.99;70.60
71915;BME280;60387;49.994;14.660;2022-10-15T08:05:54;97194.16;;;16.01;70.48
71915;BME280;60387;49.994;14.660;2022-10-15T08:08:28;97196.22;;;16.04;70.14
71915;BME280;60387;49.994;14.660;2022-10-15T08:11:06;97196.31;;;16.07;69.49
71915;BME280;60387;49.994;14.660;2022-10-15T08:13:40;97190.94;;;16.11;69.60
71915;BME280;60387;49.994;14.660;2022-10-15T08:16:15;97186.44;;;16.18;70.08
71915;BME280;60387;49.994;14.660;2022-10-15T08:18:48;97184.97;;;16.21;69.63
71915;BME280;60387;49.994;14.660;2022-10-15T08:21:22;97182.44;;;16.27;69.51
71915;BME280;60387;49.994;14.660;2022-10-15T08:23:55;97193.41;;;16.31;69.69
71915;BME280;60387;49.994;14.660;2022-10-15T08:26:28;97181.72;;;16.30;70.00
71915;BME280;60387;49.994;14.660;2022-10-15T08:29:02;97189.91;;;16.30;69.96
71915;BME280;60387;49.994;14.660;2022-10-15T08:31:37;97202.53;;;16.35;70.03
71915;BME280;60387;49.994;14.660;2022-10-15T08:34:11;97200.56;;;16.35;69.62
71915;BME280;60387;49.994;14.660;2022-10-15T08:36:44;97208.22;;;16.42;69.26
71915;BME280;60387;49.994;14.660;2022-10-15T08:39:17;97198.16;;;16.46;69.54
71915;BME280;60387;49.994;14.660;2022-10-15T08:41:53;97209.63;;;16.51;69.46
71915;BME280;60387;49.994;14.660;2022-10-15T08:44:38;97195.06;;;16.47;69.56
71915;BME280;60387;49.994;14.660;2022-10-15T08:50:34;97222.09;;;16.64;69.36
71915;BME280;60387;49.994;14.660;2022-10-15T08:53:12;97208.50;;;16.68;69.03
71915;BME280;60387;49.994;14.660;2022-10-15T08:55:52;97207.00;;;16.70;69.10
71915;BME280;60387;49.994;14.660;2022-10-15T08:58:55;97210.72;;;16.78;69.47
71915;BME280;60387;49.994;14.660;2022-10-15T09:04:22;97217.22;;;16.89;69.00
71915;BME280;60387;49.994;14.660;2022-10-15T09:07:08;97216.97;;;16.94;69.14
71915;BME280;60387;49.994;14.660;2022-10-15T09:12:49;97233.09;;;16.99;68.87
71915;BME280;60387;49.994;14.660;2022-10-15T09:15:32;97223.31;;;16.98;68.96
71915;BME280;60387;49.994;14.660;2022-10-15T09:18:17;97233.56;;;17.01;68.89
71915;BME280;60387;49.994;14.660;2022-10-15T09:20:52;97233.56;;;17.01;68.77
71915;BME280;60387;49.994;14.660;2022-10-15T09:23:27;97244.94;;;17.03;68.96
71915;BME280;60387;49.994;14.660;2022-10-15T09:26:41;97238.84;;;17.09;69.04
71915;BME280;60387;49.994;14.660;2022-10-15T09:32:39;97244.59;;;17.20;68.80
71915;BME280;60387;49.994;14.660;2022-10-15T09:35:23;97242.44;;;17.29;68.71
71915;BME280;60387;49.994;14.660;2022-10-15T09:38:12;97249.72;;;17.37;68.84
71915;BME280;60387;49.994;14.660;2022-10-15T09:43:57;97246.00;;;17.45;68.47
71915;BME280;60387;49.994;14.660;2022-10-15T09:46:31;97253.13;;;17.49;68.17
71915;BME280;60387;49.994;14.660;2022-10-15T09:49:12;97249.66;;;17.52;68.44
71915;BME280;60387;49.994;14.660;2022-10-15T09:54:35;97249.50;;;17.61;67.76
71915;BME280;60387;49.994;14.660;2022-10-15T09:57:12;97252.81;;;17.70;67.74
71915;BME280;60387;49.994;14.660;2022-10-15T09:59:55;97259.06;;;17.70;67.66
71915;BME280;60387;49.994;14.660;2022-10-15T10:02:28;97258.47;;;17.77;67.20
71915;BME280;60387;49.994;14.660;2022-10-15T10:05:28;97251.09;;;17.81;67.42
71915;BME280;60387;49.994;14.660;2022-10-15T10:08:31;97257.09;;;17.86;67.50
71915;BME280;60387;49.994;14.660;2022-10-15T10:11:06;97258.06;;;17.94;67.37
71915;BME280;60387;49.994;14.660;2022-10-15T10:13:54;97266.84;;;18.03;67.07
71915;BME280;60387;49.994;14.660;2022-10-15T10:16:28;97266.63;;;18.11;66.68
71915;BME280;60387;49.994;14.660;2022-10-15T10:19:12;97269.44;;;18.15;66.42
71915;BME280;60387;49.994;14.660;2022-10-15T10:21:46;97265.97;;;18.18;66.32
71915;BME280;60387;49.994;14.660;2022-10-15T10:24:27;97275.50;;;18.24;66.10
71915;BME280;60387;49.994;14.660;2022-10-15T10:27:01;97270.81;;;18.24;66.22
71915;BME280;60387;49.994;14.660;2022-10-15T10:29:38;97269.28;;;18.27;65.89
71915;BME280;60387;49.994;14.660;2022-10-15T10:32:18;97265.69;;;18.23;65.74
71915;BME280;60387;49.994;14.660;2022-10-15T10:34:53;97283.00;;;18.27;65.69
71915;BME280;60387;49.994;14.660;2022-10-15T10:37:27;97269.59;;;18.22;65.46
71915;BME280;60387;49.994;14.660;2022-10-15T10:40:20;97268.09;;;18.24;65.71
71915;BME280;60387;49.994;14.660;2022-10-15T10:43:11;97280.63;;;18.25;65.61
71915;BME280;60387;49.994;14.660;2022-10-15T10:45:59;97280.25;;;18.27;65.97
71915;BME280;60387;49.994;14.660;2022-10-15T10:48:40;97275.69;;;18.31;65.75
71915;BME280;60387;49.994;14.660;2022-10-15T10:51:23;97282.41;;;18.33;65.64
71915;BME280;60387;49.994;14.660;2022-10-15T10:53:59;97281.31;;;18.38;65.54
71915;BME280;60387;49.994;14.660;2022-10-15T10:56:39;97282.59;;;18.44;65.52
71915;BME280;60387;49.994;14.660;2022-10-15T10:59:16;97278.72;;;18.45;65.22
71915;BME280;60387;49.994;14.660;2022-10-15T11:01:51;97285.84;;;18.49;65.15
71915;BME280;60387;49.994;14.660;2022-10-15T11:04:28;97276.09;;;18.52;65.13
71915;BME280;60387;49.994;14.660;2022-10-15T11:07:23;97280.78;;;18.51;65.02
71915;BME280;60387;49.994;14.660;2022-10-15T11:12:57;97290.53;;;18.49;64.98
71915;BME280;60387;49.994;14.660;2022-10-15T11:18:36;97285.78;;;18.46;65.18
71915;BME280;60387;49.994;14.660;2022-10-15T11:24:54;97283.75;;;18.43;65.54
71915;BME280;60387;49.994;14.660;2022-10-15T11:30:51;97274.75;;;18.42;65.66
71915;BME280;60387;49.994;14.660;2022-10-15T11:42:53;97281.88;;;18.47;65.71
71915;BME280;60387;49.994;14.660;2022-10-15T11:51:49;97290.69;;;18.56;65.75
71915;BME280;60387;49.994;14.660;2022-10-15T11:57:08;97285.34;;;18.63;65.73
71915;BME280;60387;49.994;14.660;2022-10-15T11:59:50;97276.78;;;18.68;65.67
71915;BME280;60387;49.994;14.660;2022-10-15T12:02:31;97271.44;;;18.75;65.48
71915;BME280;60387;49.994;14.660;2022-10-15T12:05:24;97275.91;;;18.83;65.63
71915;BME280;60387;49.994;14.660;2022-10-15T12:08:00;97268.97;;;18.89;65.39
71915;BME280;60387;49.994;14.660;2022-10-15T12:14:12;97269.19;;;19.03;64.94
71915;BME280;60387;49.994;14.660;2022-10-15T12:16:57;97270.75;;;19.04;64.89
71915;BME280;60387;49.994;14.660;2022-10-15T12:19:47;97275.06;;;19.01;64.42
71915;BME280;60387;49.994;14.660;2022-10-15T12:22:53;97270.75;;;19.04;64.59
71915;BME280;60387;49.994;14.660;2022-10-15T12:28:18;97283.66;;;19.00;64.50
71915;BME280;60387;49.994;14.660;2022-10-15T12:30:57;97278.91;;;18.97;64.38
71915;BME280;60387;49.994;14.660;2022-10-15T12:36:27;97282.19;;;19.06;64.70
71915;BME280;60387;49.994;14.660;2022-10-15T12:39:05;97282.19;;;19.06;64.80
71915;BME280;60387;49.994;14.660;2022-10-15T12:41:42;97284.56;;;19.07;64.69
71915;BME280;60387;49.994;14.660;2022-10-15T12:44:28;97289.69;;;19.09;64.44
71915;BME280;60387;49.994;14.660;2022-10-15T12:47:02;97297.09;;;19.05;64.38
71915;BME280;60387;49.994;14.660;2022-10-15T12:49:45;97293.13;;;19.02;64.57
71915;BME280;60387;49.994;14.660;2022-10-15T13:00:36;97307.25;;;19.04;64.65
71915;BME280;60387;49.994;14.660;2022-10-15T13:05:50;97290.38;;;19.02;64.47
71915;BME280;60387;49.994;14.660;2022-10-15T13:08:24;97293.88;;;19.03;64.56
71915;BME280;60387;49.994;14.660;2022-10-15T13:10:59;97289.94;;;19.00;64.80
71915;BME280;60387;49.994;14.660;2022-10-15T13:13:33;97294.56;;;18.96;64.93
71915;BME280;60387;49.994;14.660;2022-10-15T13:16:07;97296.16;;;18.97;65.00
71915;BME280;60387;49.994;14.660;2022-10-15T13:18:48;97289.88;;;18.97;65.19
71915;BME280;60387;49.994;14.660;2022-10-15T13:24:24;97297.66;;;18.95;65.74
71915;BME280;60387;49.994;14.660;2022-10-15T13:26:59;97299.56;;;18.91;65.46
71915;BME280;60387;49.994;14.660;2022-10-15T13:29:32;97295.66;;;18.92;65.63
71915;BME280;60387;49.994;14.660;2022-10-15T13:32:12;97288.16;;;18.89;65.66
71915;BME280;60387;49.994;14.660;2022-10-15T13:34:47;97292.50;;;18.90;65.76
71915;BME280;60387;49.994;14.660;2022-10-15T13:37:26;97296.03;;;18.90;65.69
71915;BME280;60387;49.994;14.660;2022-10-15T13:40:03;97300.81;;;18.93;66.23
71915;BME280;60387;49.994;14.660;2022-10-15T13:42:37;97298.00;;;18.90;65.98
71915;BME280;60387;49.994;14.660;2022-10-15T13:47:48;97298.41;;;18.92;65.77
71915;BME280;60387;49.994;14.660;2022-10-15T13:50:27;97305.47;;;18.93;66.02
71915;BME280;60387;49.994;14.660;2022-10-15T13:55:50;97298.00;;;18.90;66.15
71915;BME280;60387;49.994;14.660;2022-10-15T13:58:34;97303.09;;;18.91;66.22
71915;BME280;60387;49.994;14.660;2022-10-15T14:03:51;97315.16;;;18.87;66.15
71915;BME280;60387;49.994;14.660;2022-10-15T14:06:35;97317.50;;;18.85;66.02
71915;BME280;60387;49.994;14.660;2022-10-15T14:09:19;97322.63;;;18.86;66.17
71915;BME280;60387;49.994;14.660;2022-10-15T14:11:53;97324.94;;;18.84;65.95
71915;BME280;60387;49.994;14.660;2022-10-15T14:17:07;97332.44;;;18.87;66.20
71915;BME280;60387;49.994;14.660;2022-10-15T14:19:47;97330.84;;;18.86;66.07
71915;BME280;60387;49.994;14.660;2022-10-15T14:22:23;97339.09;;;18.86;66.39
71915;BME280;60387;49.994;14.660;2022-10-15T14:24:56;97336.69;;;18.85;66.43
71915;BME280;60387;49.994;14.660;2022-10-15T14:27:30;97338.16;;;18.79;66.40
71915;BME280;60387;49.994;14.660;2022-10-15T14:30:13;97337.44;;;18.82;66.46
71915;BME280;60387;49.994;14.660;2022-10-15T14:32:48;97349.94;;;18.79;66.47
71915;BME280;60387;49.994;14.660;2022-10-15T14:35:24;97355.78;;;18.78;66.81
71915;BME280;60387;49.994;14.660;2022-10-15T14:38:18;97347.13;;;18.76;66.57
71915;BME280;60387;49.994;14.660;2022-10-15T14:41:04;97345.88;;;18.73;67.02
71915;BME280;60387;49.994;14.660;2022-10-15T14:43:38;97344.28;;;18.72;67.09
71915;BME280;60387;49.994;14.660;2022-10-15T14:46:17;97358.41;;;18.71;66.97
71915;BME280;60387;49.994;14.660;2022-10-15T14:48:51;97349.72;;;18.69;67.10
71915;BME280;60387;49.994;14.660;2022-10-15T14:51:25;97343.44;;;18.68;67.19
71915;BME280;60387;49.994;14.660;2022-10-15T14:53:58;97345.38;;;18.68;67.15
71915;BME280;60387;49.994;14.660;2022-10-15T14:56:32;97337.81;;;18.61;67.35
71915;BME280;60387;49.994;14.660;2022-10-15T14:59:05;97341.41;;;18.65;67.37
71915;BME280;60387;49.994;14.660;2022-10-15T15:01:39;97346.13;;;18.65;67.30
71915;BME280;60387;49.994;14.660;2022-10-15T15:04:31;97340.97;;;18.63;67.60
71915;BME280;60387;49.994;14.660;2022-10-15T15:07:19;97340.22;;;18.63;67.60
71915;BME280;60387;49.994;14.660;2022-10-15T15:09:52;97333.09;;;18.62;67.59
71915;BME280;60387;49.994;14.660;2022-10-15T15:12:26;97336.66;;;18.62;67.63
71915;BME280;60387;49.994;14.660;2022-10-15T15:15:00;97346.81;;;18.62;67.60
71915;BME280;60387;49.994;14.660;2022-10-15T15:17:33;97335.06;;;18.61;67.47
71915;BME280;60387;49.994;14.660;2022-10-15T15:20:08;97340.63;;;18.65;67.20
71915;BME280;60387;49.994;14.660;2022-10-15T15:22:42;97333.97;;;18.66;67.66
71915;BME280;60387;49.994;14.660;2022-10-15T15:25:28;97342.63;;;18.68;68.27
71915;BME280;60387;49.994;14.660;2022-10-15T15:28:02;97344.16;;;18.65;67.87
71915;BME280;60387;49.994;14.660;2022-10-15T15:30:39;97343.31;;;18.61;67.55
71915;BME280;60387;49.994;14.660;2022-10-15T15:33:14;97342.50;;;18.61;67.89